Archival Weather

Norman Y Mineta San Jose Intl

San Jose, California (KSJC)

Report from: Wednesday, February 28, 2024 8:53 PM PST
Current time: Saturday, June 22, 2024 2:57 AM PDT

Current weather – Weather history – Daily summaries
Weather forecast

Temperature11.7°C (53.1°F)
Dew point7.2°C (45.0°F)
Winds 6 kts (3.1 m/s, 6.9 mph) Northwest (320°)
Visibility10 mi. (16.1 km)
Clouds Sky clear
Altimeter30.02 in.Hg (1017 mB)
Relative humidity74 %
Density altitude-360 ft. (-110 m)
Sea-level pressure101.7 kPa (1017 mB, 30.02 in.Hg)
Remarks Automated weather observing station with precipitation discriminator
Flight conditions Visual Meteorological Conditions
Raw dataKSJC 290453Z 32006KT 10SM CLR 12/07 A3002 RMK AO2 SLP166 T01170072
An error has occurred. This application may no longer respond until reloaded. Reload 🗙